Middleton, WI (53562)

10:01 PM CST on February 10, 2016 (GMT -0600)
Middleton | | Change Station
CLOSE
Current Station
Airport
Location: Middleton,
Elevation: 928 ft
Nearby Weather Stations

Elev 928 ft 43.12 °N, 89.53 °W | Updated 6 minutes ago

Scattered Clouds
Scattered Clouds
7 °F
Feels Like 7 °F
N
0
Wind Variable Wind from North

Today
High -- | Low -- °F
--% Chance of Precip.
Yesterday
High -- | Low -- °F
Precip. -- in
Pressure 30.17 in
Visibility 10.0 miles
Clouds Scattered Clouds 12000 ft
Dew Point -1 °F
Humidity 70%
Rainfall 0.00 in
Snow Depth Not available.
7:03 AM 5:22 PM
Waxing Crescent, 9% visible
METAR KC29 110355Z AUTO 00000KT 10SM SCT120 M14/M18 A3017 RMK AO1 T11391183
Pressure 30.17 in
Visibility 10.0 miles
Clouds Scattered Clouds 12000 ft
Dew Point -1 °F
Humidity 70%
Rainfall 0.00 in
Snow Depth Not available.
7:03 AM 5:22 PM
Waxing Crescent, 9% visible
METAR KC29 110355Z AUTO 00000KT 10SM SCT120 M14/M18 A3017 RMK AO1 T11391183

10-Day Weather Forecast

Almanac

Astronomy

Feb. 10, 2016 Rise Set
Actual Time
Civil Twilight
Nautical Twilight
Astronomical Twilight
Moon
Length of Visible Light
Length of Day
Tomorrow will be .
, % of the Moon is Illuminated

Today's Extremes

State Highs State Lows

Community

WunderPhotos

Upload Photos

1,892,007 photos uploaded!

WunderBlog® & News

Nearby

Air Quality

  Air Quality AQ Index Pollutant
Not available.

Snow Depth

Station Depth Elevation

Earthquake Activity

City Distance Mag. Time & Date
Minimum magnitude displayed is 2.5.

Coastal Water Temperatures

Place Temperature

Stations

Nearby Weather Stations

Station Location Temp. Windchill Dew Point Humidity Wind Precip. Elev Updated Type
                   

Watches & Warnings

There are currently no watches in effect.